createdAt,value
2022-12-18T00:01:00.309Z,2.97
2022-12-18T00:03:27.147Z,3.73
2022-12-18T00:05:53.646Z,3.87
2022-12-18T00:08:20.113Z,4.63
2022-12-18T00:10:46.828Z,3.40
2022-12-18T00:13:13.453Z,5.00
2022-12-18T00:15:40.597Z,2.43
2022-12-18T00:18:12.210Z,2.70
2022-12-18T00:20:40.476Z,4.37
2022-12-18T00:23:07.641Z,3.73
2022-12-18T00:25:36.089Z,3.60
2022-12-18T00:28:03.393Z,2.90
2022-12-18T00:30:29.861Z,4.67
2022-12-18T00:32:56.312Z,3.63
2022-12-18T00:35:25.750Z,2.80
2022-12-18T00:37:52.822Z,2.60
2022-12-18T00:40:19.852Z,4.93
2022-12-18T00:42:58.158Z,3.80
2022-12-18T00:45:25.178Z,4.60
2022-12-18T00:47:51.946Z,4.90
2022-12-18T00:50:18.383Z,3.40
2022-12-18T00:52:44.767Z,2.70
2022-12-18T00:55:11.632Z,3.77
2022-12-18T00:57:38.004Z,2.97
2022-12-18T01:00:07.547Z,3.30
2022-12-18T01:02:35.085Z,3.40
2022-12-18T01:05:02.123Z,3.03
2022-12-18T01:07:28.616Z,3.70
2022-12-18T01:09:54.921Z,3.93
2022-12-18T01:12:22.708Z,3.17
2022-12-18T01:14:50.697Z,2.80
2022-12-18T01:17:17.290Z,5.07
2022-12-18T01:19:43.963Z,2.33
2022-12-18T01:22:10.364Z,3.53
2022-12-18T01:24:37.933Z,4.73
2022-12-18T01:27:04.292Z,3.57
2022-12-18T01:29:30.730Z,3.40
2022-12-18T01:31:57.110Z,3.90
2022-12-18T01:34:24.034Z,4.17
2022-12-18T01:36:53.121Z,1.80
2022-12-18T01:39:19.515Z,2.37
2022-12-18T01:42:04.394Z,3.60
2022-12-18T01:44:49.639Z,3.50
2022-12-18T01:47:21.284Z,2.87
2022-12-18T01:49:47.632Z,3.83
2022-12-18T01:52:16.082Z,3.23
2022-12-18T01:54:42.676Z,3.20
2022-12-18T01:57:09.994Z,3.57
2022-12-18T01:59:36.571Z,3.00
2022-12-18T02:02:03.524Z,3.97
2022-12-18T02:04:30.263Z,4.27
2022-12-18T02:07:21.376Z,3.60
2022-12-18T02:10:09.032Z,3.67
2022-12-18T02:13:07.761Z,4.63
2022-12-18T02:15:40.501Z,3.87
2022-12-18T02:18:28.598Z,3.33
2022-12-18T02:21:21.091Z,2.43
2022-12-18T02:23:53.230Z,3.53
2022-12-18T02:26:29.587Z,3.60
2022-12-18T02:29:05.938Z,3.80
2022-12-18T02:31:37.738Z,3.77
2022-12-18T02:34:05.562Z,3.23
2022-12-18T02:36:39.676Z,2.80
2022-12-18T02:39:07.925Z,4.10
2022-12-18T02:41:37.738Z,3.77
2022-12-18T02:44:08.379Z,3.87
2022-12-18T02:46:40.872Z,4.30
2022-12-18T02:49:14.687Z,2.40
2022-12-18T02:51:54.413Z,3.03
2022-12-18T02:54:33.269Z,4.90
2022-12-18T02:57:04.476Z,3.77
2022-12-18T02:59:36.104Z,3.40
2022-12-18T03:02:22.862Z,2.47
2022-12-18T03:07:20.368Z,4.07
2022-12-18T03:09:50.154Z,3.10
2022-12-18T03:12:25.310Z,3.50
2022-12-18T03:15:05.551Z,3.87
2022-12-18T03:17:33.123Z,2.93
2022-12-18T03:20:03.026Z,5.40
2022-12-18T03:22:31.633Z,3.20
2022-12-18T03:24:59.166Z,3.30
2022-12-18T03:27:27.131Z,3.00
2022-12-18T03:30:07.945Z,2.43
2022-12-18T03:33:00.550Z,3.17
2022-12-18T03:35:30.375Z,2.30
2022-12-18T03:37:56.865Z,3.27
2022-12-18T03:40:28.078Z,3.63
2022-12-18T03:43:00.356Z,4.90
2022-12-18T03:45:32.690Z,2.50
2022-12-18T03:48:05.827Z,3.83
2022-12-18T03:50:37.909Z,2.37
2022-12-18T03:53:19.351Z,2.90
2022-12-18T03:55:48.844Z,2.97
2022-12-18T03:58:18.457Z,2.27
2022-12-18T04:00:56.989Z,3.77
2022-12-18T04:03:26.695Z,1.83
2022-12-18T04:05:54.000Z,3.67
2022-12-18T04:08:22.300Z,3.40
2022-12-18T04:10:57.489Z,3.47
2022-12-18T04:13:25.896Z,2.73
2022-12-18T04:15:52.670Z,3.63
2022-12-18T04:18:20.128Z,4.00
2022-12-18T04:20:46.950Z,3.60
2022-12-18T04:23:13.515Z,2.47
2022-12-18T04:25:40.906Z,2.40
2022-12-18T04:28:11.401Z,3.23
2022-12-18T04:30:39.226Z,3.50
2022-12-18T04:33:09.490Z,4.03
2022-12-18T04:35:35.833Z,2.07
2022-12-18T04:38:02.257Z,2.97
2022-12-18T04:40:28.648Z,3.27
2022-12-18T04:42:55.326Z,3.90
2022-12-18T04:45:21.733Z,2.60
2022-12-18T04:47:48.077Z,3.20
2022-12-18T04:50:14.342Z,4.67
2022-12-18T04:52:40.887Z,4.83
2022-12-18T04:55:07.791Z,3.63
2022-12-18T04:57:34.163Z,3.23
2022-12-18T05:00:01.772Z,2.57
2022-12-18T05:02:28.199Z,2.83
2022-12-18T05:04:55.059Z,3.73
2022-12-18T05:07:21.408Z,4.07
2022-12-18T05:09:47.781Z,3.57
2022-12-18T05:12:14.159Z,2.53
2022-12-18T05:14:40.517Z,3.53
2022-12-18T05:17:06.912Z,3.17
2022-12-18T05:19:35.600Z,3.23
2022-12-18T05:22:02.369Z,3.63
2022-12-18T05:24:28.691Z,4.17
2022-12-18T05:26:55.195Z,4.27
2022-12-18T05:29:21.574Z,4.20
2022-12-18T05:31:48.048Z,3.87
2022-12-18T05:34:15.012Z,3.07
2022-12-18T05:36:41.383Z,3.33
2022-12-18T05:39:07.967Z,2.67
2022-12-18T05:41:34.366Z,2.30
2022-12-18T05:44:00.738Z,2.77
2022-12-18T05:46:27.055Z,2.07
2022-12-18T05:48:53.485Z,6.27
2022-12-18T05:51:21.835Z,2.27
2022-12-18T05:53:49.067Z,3.97
2022-12-18T05:56:16.830Z,2.90
2022-12-18T05:58:45.067Z,2.70
2022-12-18T06:01:14.266Z,3.17
2022-12-18T06:03:41.146Z,4.30
2022-12-18T06:06:15.527Z,3.17
2022-12-18T06:08:46.173Z,3.07
2022-12-18T06:11:13.583Z,2.57
2022-12-18T06:13:40.285Z,2.23
2022-12-18T06:16:07.203Z,3.23
2022-12-18T06:18:33.595Z,2.40
2022-12-18T06:21:01.053Z,2.43
2022-12-18T06:23:27.663Z,2.77
2022-12-18T06:25:53.937Z,2.87
2022-12-18T06:28:20.364Z,3.17
2022-12-18T06:30:49.028Z,3.40
2022-12-18T06:33:15.642Z,4.53
2022-12-18T06:35:42.221Z,3.73
2022-12-18T06:38:09.152Z,2.60
2022-12-18T06:40:37.379Z,2.83
2022-12-18T06:43:03.737Z,4.03
2022-12-18T06:45:30.310Z,3.57
2022-12-18T06:47:56.603Z,4.23
2022-12-18T06:50:25.330Z,3.67
2022-12-18T06:52:51.605Z,2.70
2022-12-18T06:55:17.997Z,5.20
2022-12-18T06:57:44.312Z,2.10
2022-12-18T07:00:10.836Z,3.20
2022-12-18T07:02:37.230Z,2.17
2022-12-18T07:05:10.269Z,4.47
2022-12-18T07:07:37.243Z,3.90
2022-12-18T07:10:04.044Z,2.37
2022-12-18T07:12:30.521Z,4.07
2022-12-18T07:14:56.822Z,2.63
2022-12-18T07:17:23.332Z,2.33
2022-12-18T07:19:49.645Z,3.10
2022-12-18T07:22:15.977Z,3.57
2022-12-18T07:24:42.407Z,3.40
2022-12-18T07:27:08.674Z,4.53
2022-12-18T07:29:36.306Z,2.37
2022-12-18T07:32:02.727Z,3.07
2022-12-18T07:34:29.116Z,4.67
2022-12-18T07:36:55.566Z,3.60
2022-12-18T07:39:22.592Z,3.23
2022-12-18T07:42:09.313Z,3.40
2022-12-18T07:44:37.508Z,2.38
2022-12-18T07:47:11.818Z,3.67
2022-12-18T07:49:38.833Z,2.80
2022-12-18T07:52:05.422Z,2.33
2022-12-18T07:54:31.841Z,4.77
2022-12-18T07:56:58.197Z,3.53
2022-12-18T07:59:24.495Z,3.53
2022-12-18T08:01:50.857Z,3.60
2022-12-18T08:04:17.393Z,3.90
2022-12-18T08:06:47.559Z,4.27
2022-12-18T08:09:15.531Z,3.17
2022-12-18T08:11:41.859Z,3.83
2022-12-18T08:14:08.167Z,3.87
2022-12-18T08:16:35.970Z,3.37
2022-12-18T08:19:02.684Z,3.80
2022-12-18T08:21:30.378Z,6.27
2022-12-18T08:23:58.335Z,5.73
2022-12-18T08:26:27.189Z,4.40
2022-12-18T08:28:54.757Z,3.23
2022-12-18T08:31:22.009Z,4.80
2022-12-18T08:33:53.478Z,4.87
2022-12-18T08:36:21.798Z,5.80
2022-12-18T08:38:48.132Z,4.77
2022-12-18T08:41:15.525Z,16.90
2022-12-18T08:44:01.789Z,7.30
2022-12-18T08:46:33.081Z,5.03
2022-12-18T08:49:01.818Z,4.63
2022-12-18T08:51:29.268Z,5.77
2022-12-18T08:53:55.828Z,4.93
2022-12-18T08:56:22.164Z,4.47
2022-12-18T08:58:48.510Z,5.30
2022-12-18T09:01:14.974Z,4.93
2022-12-18T09:03:41.997Z,5.87
2022-12-18T09:06:09.121Z,7.00
2022-12-18T09:08:35.620Z,6.37
2022-12-18T09:11:01.942Z,6.47
2022-12-18T09:13:28.406Z,5.50
2022-12-18T09:15:56.234Z,5.73
2022-12-18T09:18:23.263Z,5.37
2022-12-18T09:20:51.098Z,5.03
2022-12-18T09:23:17.409Z,6.47
2022-12-18T09:25:43.723Z,10.23
2022-12-18T09:28:14.306Z,7.00
2022-12-18T09:30:41.361Z,6.13
2022-12-18T09:33:07.961Z,6.20
2022-12-18T09:35:36.869Z,7.20
2022-12-18T09:38:03.201Z,6.40
2022-12-18T09:40:33.461Z,7.03
2022-12-18T09:43:01.481Z,8.80
2022-12-18T09:45:28.372Z,8.40
2022-12-18T09:47:56.235Z,6.90
2022-12-18T09:50:25.658Z,6.87
2022-12-18T09:52:53.484Z,7.40
2022-12-18T09:55:35.147Z,7.33
2022-12-18T09:58:12.748Z,7.67
2022-12-18T10:00:39.195Z,7.80
2022-12-18T10:03:13.299Z,10.40
2022-12-18T10:05:51.917Z,7.97
2022-12-18T10:08:23.298Z,9.17
2022-12-18T10:10:50.947Z,8.93
2022-12-18T10:13:33.265Z,7.37
2022-12-18T10:16:08.774Z,7.77
2022-12-18T10:18:41.844Z,8.80
2022-12-18T10:21:12.146Z,8.87
2022-12-18T10:23:50.748Z,8.60
2022-12-18T10:26:17.055Z,9.60
2022-12-18T10:28:44.792Z,8.57
2022-12-18T10:31:24.524Z,9.30
2022-12-18T10:33:51.962Z,8.07
2022-12-18T10:36:18.510Z,7.83
2022-12-18T10:38:44.992Z,10.57
2022-12-18T10:41:22.927Z,8.13
2022-12-18T10:43:49.283Z,7.40
2022-12-18T10:46:17.845Z,8.83
2022-12-18T10:48:47.301Z,8.03
2022-12-18T10:51:30.404Z,8.17
2022-12-18T10:54:00.415Z,7.57
2022-12-18T10:56:28.568Z,8.70
2022-12-18T10:58:59.468Z,10.10
2022-12-18T11:01:25.876Z,8.07
2022-12-18T11:03:59.022Z,7.63
2022-12-18T11:06:28.317Z,7.55
2022-12-18T11:08:59.486Z,9.20
2022-12-18T11:11:26.578Z,7.40
2022-12-18T11:13:59.494Z,7.17
2022-12-18T11:16:26.109Z,6.07
2022-12-18T11:18:52.469Z,8.33
2022-12-18T11:21:18.837Z,7.73
2022-12-18T11:23:50.642Z,8.40
2022-12-18T11:26:17.049Z,6.27
2022-12-18T11:29:17.983Z,7.80
2022-12-18T11:31:44.718Z,9.93
2022-12-18T11:34:45.760Z,7.57
2022-12-18T11:37:13.874Z,8.40
2022-12-18T11:39:43.585Z,8.67
2022-12-18T11:42:30.130Z,8.23
2022-12-18T11:45:09.189Z,6.57
2022-12-18T11:47:40.343Z,7.87
2022-12-18T11:50:13.574Z,8.03
2022-12-18T11:52:40.847Z,9.80
2022-12-18T11:55:29.994Z,8.87
2022-12-18T11:58:04.654Z,8.00
2022-12-18T12:00:32.523Z,7.43
2022-12-18T12:03:01.956Z,8.67
2022-12-18T12:05:39.252Z,9.73
2022-12-18T12:08:34.670Z,6.67
2022-12-18T12:14:15.165Z,9.40
2022-12-18T12:17:04.117Z,8.70
2022-12-18T12:19:37.645Z,7.07
2022-12-18T12:22:03.927Z,7.97
2022-12-18T12:25:04.402Z,7.40
2022-12-18T12:27:36.645Z,6.43
2022-12-18T12:30:27.223Z,7.80
2022-12-18T12:32:53.626Z,9.80
2022-12-18T12:35:22.913Z,7.93
2022-12-18T12:38:04.616Z,5.87
2022-12-18T12:43:37.757Z,8.37
2022-12-18T12:46:05.915Z,5.70
2022-12-18T12:48:51.121Z,8.03
2022-12-18T12:51:19.253Z,7.40
2022-12-18T12:53:47.155Z,6.50
2022-12-18T12:56:15.444Z,6.17
2022-12-18T12:58:51.116Z,7.87
2022-12-18T13:01:37.094Z,7.97
2022-12-18T13:04:11.385Z,7.45
2022-12-18T13:07:06.068Z,9.03
2022-12-18T13:09:35.023Z,9.63
2022-12-18T13:12:23.263Z,7.63
2022-12-18T13:14:49.758Z,6.13
2022-12-18T13:17:20.102Z,7.03
2022-12-18T13:19:51.300Z,5.87
2022-12-18T13:22:25.170Z,6.90
2022-12-18T13:24:52.025Z,7.73
2022-12-18T13:27:37.503Z,7.37
2022-12-18T13:30:19.092Z,6.23
2022-12-18T13:32:45.711Z,6.57
2022-12-18T13:35:19.101Z,6.93
2022-12-18T13:37:56.561Z,7.03
2022-12-18T13:40:42.272Z,5.43
2022-12-18T13:43:27.096Z,8.47
2022-12-18T13:46:02.808Z,7.27
2022-12-18T13:48:30.615Z,6.65
2022-12-18T13:51:02.796Z,6.20
2022-12-18T13:53:35.299Z,7.00
2022-12-18T13:56:02.764Z,6.10
2022-12-18T13:58:30.261Z,6.43
2022-12-18T14:00:57.752Z,6.47
2022-12-18T14:03:27.426Z,6.33
2022-12-18T14:05:55.823Z,5.33
2022-12-18T14:08:24.602Z,7.13
2022-12-18T14:10:54.137Z,7.13
2022-12-18T14:13:35.627Z,7.53
2022-12-18T14:16:04.370Z,6.30
2022-12-18T14:18:47.780Z,6.20
2022-12-18T14:21:26.057Z,7.57
2022-12-18T14:24:07.983Z,6.20
2022-12-18T14:26:34.868Z,5.70
2022-12-18T14:29:02.543Z,5.47
2022-12-18T14:31:30.402Z,5.27
2022-12-18T14:33:57.496Z,7.03
2022-12-18T14:36:25.336Z,6.03
2022-12-18T14:38:54.539Z,5.60
2022-12-18T14:41:22.023Z,6.03
2022-12-18T14:43:49.858Z,5.87
2022-12-18T14:46:36.186Z,5.87
2022-12-18T14:49:16.218Z,6.18
2022-12-18T14:51:48.099Z,5.03
2022-12-18T14:54:19.653Z,7.00
2022-12-18T14:56:47.801Z,6.10
2022-12-18T14:59:23.753Z,6.63
2022-12-18T15:02:02.631Z,4.82
2022-12-18T15:04:30.422Z,5.10
2022-12-18T15:07:09.294Z,5.73
2022-12-18T15:09:35.714Z,5.40
2022-12-18T15:12:02.396Z,5.53
2022-12-18T15:14:39.383Z,6.13
2022-12-18T15:17:18.684Z,5.17
2022-12-18T15:19:45.717Z,7.07
2022-12-18T15:22:18.667Z,5.13
2022-12-18T15:24:45.685Z,5.93
2022-12-18T15:27:23.313Z,5.83
2022-12-18T15:30:06.140Z,4.97
2022-12-18T15:32:32.464Z,4.83
2022-12-18T15:35:16.991Z,4.70
2022-12-18T15:37:43.529Z,6.17
2022-12-18T15:40:13.323Z,6.83
2022-12-18T15:42:58.678Z,6.73
2022-12-18T15:45:25.081Z,6.00
2022-12-18T15:47:51.580Z,8.27
2022-12-18T15:50:17.960Z,5.23
2022-12-18T15:52:45.789Z,6.87
2022-12-18T15:55:35.889Z,5.33
2022-12-18T15:58:03.154Z,5.60
2022-12-18T16:00:29.656Z,5.50
2022-12-18T16:02:56.187Z,5.23
2022-12-18T16:05:23.371Z,6.50
2022-12-18T16:07:49.735Z,6.20
2022-12-18T16:10:16.139Z,5.10
2022-12-18T16:12:42.984Z,6.20
2022-12-18T16:15:11.392Z,7.87
2022-12-18T16:17:37.717Z,5.87
2022-12-18T16:20:04.183Z,7.27
2022-12-18T16:22:31.044Z,6.50
2022-12-18T16:24:57.775Z,6.93
2022-12-18T16:27:24.883Z,7.90
2022-12-18T16:29:51.595Z,5.87
2022-12-18T16:32:19.638Z,6.67
2022-12-18T16:34:46.803Z,6.37
2022-12-18T16:37:14.298Z,5.37
2022-12-18T16:39:41.190Z,6.50
2022-12-18T16:42:19.883Z,5.90
2022-12-18T16:44:47.170Z,6.43
2022-12-18T16:47:15.250Z,6.47
2022-12-18T16:49:44.263Z,5.97
2022-12-18T16:52:10.598Z,7.73
2022-12-18T16:54:37.072Z,6.20
2022-12-18T16:57:05.200Z,5.53
2022-12-18T16:59:31.810Z,6.03
2022-12-18T17:01:58.503Z,6.00
2022-12-18T17:04:25.028Z,6.40
2022-12-18T17:06:54.400Z,4.87
2022-12-18T17:09:28.305Z,5.50
2022-12-18T17:11:54.666Z,6.40
2022-12-18T17:14:22.186Z,6.73
2022-12-18T17:16:57.831Z,5.33
2022-12-18T17:22:02.435Z,5.40
2022-12-18T17:24:34.403Z,7.27
2022-12-18T17:27:01.388Z,6.23
2022-12-18T17:29:27.681Z,6.47
2022-12-18T17:31:54.044Z,7.27
2022-12-18T17:34:21.950Z,5.47
2022-12-18T17:36:48.296Z,6.40
2022-12-18T17:39:17.705Z,8.37
2022-12-18T17:41:44.351Z,6.40
2022-12-18T17:44:10.813Z,8.10
2022-12-18T17:46:37.230Z,6.03
2022-12-18T17:49:03.724Z,5.50
2022-12-18T17:51:30.524Z,7.43
2022-12-18T17:53:56.923Z,5.50
2022-12-18T17:56:24.249Z,6.90
2022-12-18T17:58:50.885Z,6.63
2022-12-18T18:01:18.829Z,5.97
2022-12-18T18:03:45.822Z,7.23
2022-12-18T18:06:14.372Z,6.30
2022-12-18T18:08:40.949Z,6.80
2022-12-18T18:11:29.411Z,7.63
2022-12-18T18:14:01.862Z,6.03
2022-12-18T18:16:29.763Z,6.40
2022-12-18T18:19:00.355Z,6.80
2022-12-18T18:21:27.571Z,6.20
2022-12-18T18:23:54.335Z,6.67
2022-12-18T18:26:22.139Z,7.63
2022-12-18T18:28:49.544Z,8.00
2022-12-18T18:31:16.272Z,8.03
2022-12-18T18:33:43.392Z,6.00
2022-12-18T18:36:10.103Z,6.23
2022-12-18T18:38:36.482Z,9.07
2022-12-18T18:41:03.881Z,6.57
2022-12-18T18:43:30.450Z,4.90
2022-12-18T18:45:57.652Z,6.40
2022-12-18T18:48:24.079Z,6.63
2022-12-18T18:51:06.057Z,7.13
2022-12-18T18:53:36.955Z,5.43
2022-12-18T18:56:45.083Z,5.50
2022-12-18T18:58:51.701Z,6.68
2022-12-18T19:01:19.152Z,6.13
2022-12-18T19:03:48.115Z,9.17
2022-12-18T19:06:16.291Z,6.90
2022-12-18T19:08:43.806Z,4.93
2022-12-18T19:11:36.009Z,6.27
2022-12-18T19:14:04.140Z,7.20
2022-12-18T19:16:32.694Z,5.43
2022-12-18T19:19:02.266Z,7.07
2022-12-18T19:21:29.081Z,7.57
2022-12-18T19:23:57.899Z,6.73
2022-12-18T19:26:27.813Z,7.10
2022-12-18T19:28:54.744Z,5.90
2022-12-18T19:31:27.097Z,7.10
2022-12-18T19:33:56.489Z,5.90
2022-12-18T19:36:25.106Z,6.13
2022-12-18T19:38:52.781Z,7.37
2022-12-18T19:41:19.913Z,5.50
2022-12-18T19:43:47.370Z,7.77
2022-12-18T19:46:15.649Z,8.03
2022-12-18T19:48:42.585Z,7.27
2022-12-18T19:51:11.465Z,7.60
2022-12-18T19:53:37.871Z,6.87
2022-12-18T19:56:08.155Z,6.20
2022-12-18T19:58:34.514Z,6.23
2022-12-18T20:01:01.280Z,7.07
2022-12-18T20:03:32.576Z,6.93
2022-12-18T20:06:11.605Z,6.60
2022-12-18T20:08:38.259Z,6.40
2022-12-18T20:11:05.137Z,4.50
2022-12-18T20:13:33.116Z,6.20
2022-12-18T20:15:59.470Z,8.07
2022-12-18T20:18:26.177Z,6.53
2022-12-18T20:20:52.932Z,7.03
2022-12-18T20:23:24.072Z,6.80
2022-12-18T20:25:52.777Z,7.70
2022-12-18T20:28:19.269Z,8.37
2022-12-18T20:30:45.855Z,5.23
2022-12-18T20:33:12.221Z,7.50
2022-12-18T20:35:38.597Z,6.97
2022-12-18T20:38:05.747Z,6.67
2022-12-18T20:40:33.439Z,7.50
2022-12-18T20:43:00.274Z,5.73
2022-12-18T20:45:27.928Z,7.17
2022-12-18T20:47:55.004Z,7.07
2022-12-18T20:50:21.544Z,8.67
2022-12-18T20:52:48.047Z,6.57
2022-12-18T20:55:14.401Z,5.60
2022-12-18T20:57:40.867Z,7.83
2022-12-18T21:00:07.964Z,3.90
2022-12-18T21:02:35.084Z,6.60
2022-12-18T21:05:01.493Z,7.80
2022-12-18T21:07:27.814Z,5.30
2022-12-18T21:09:54.179Z,6.30
2022-12-18T21:12:43.964Z,6.80
2022-12-18T21:15:16.692Z,8.00
2022-12-18T21:17:44.639Z,7.73
2022-12-18T21:20:17.354Z,7.43
2022-12-18T21:22:44.394Z,5.83
2022-12-18T21:25:10.779Z,5.50
2022-12-18T21:27:37.163Z,4.90
2022-12-18T21:30:03.838Z,6.93
2022-12-18T21:32:32.217Z,6.03
2022-12-18T21:34:59.972Z,5.77
2022-12-18T21:37:26.624Z,5.30
2022-12-18T21:39:52.986Z,6.60
2022-12-18T21:42:38.229Z,6.73
2022-12-18T21:45:04.778Z,6.57
2022-12-18T21:47:31.218Z,6.10
2022-12-18T21:49:57.569Z,6.53
2022-12-18T21:52:30.755Z,6.47
2022-12-18T21:55:01.902Z,6.70
2022-12-18T21:57:34.859Z,7.40
2022-12-18T22:00:02.115Z,6.80
2022-12-18T22:02:38.485Z,6.50
2022-12-18T22:05:05.302Z,6.13
2022-12-18T22:07:32.486Z,6.00
2022-12-18T22:10:02.223Z,6.27
2022-12-18T22:12:43.600Z,5.73
2022-12-18T22:15:11.325Z,7.80
2022-12-18T22:17:39.700Z,7.27
2022-12-18T22:20:06.282Z,6.03
2022-12-18T22:22:32.616Z,6.17
2022-12-18T22:24:58.938Z,6.80
2022-12-18T22:27:25.452Z,6.90
2022-12-18T22:30:04.028Z,7.60
2022-12-18T22:32:34.882Z,7.03
2022-12-18T22:35:07.241Z,7.40
2022-12-18T22:37:35.733Z,5.90
2022-12-18T22:40:12.205Z,7.27
2022-12-18T22:42:39.368Z,7.85
2022-12-18T22:45:06.103Z,6.87
2022-12-18T22:47:32.480Z,7.67
2022-12-18T22:49:58.852Z,6.97
2022-12-18T22:52:25.445Z,5.90
2022-12-18T22:54:53.758Z,6.83
2022-12-18T22:57:20.719Z,7.47
2022-12-18T22:59:47.034Z,5.37
2022-12-18T23:02:15.841Z,7.67
2022-12-18T23:04:44.779Z,6.67
2022-12-18T23:07:11.432Z,5.73
2022-12-18T23:09:39.297Z,6.20
2022-12-18T23:12:05.797Z,6.23
2022-12-18T23:14:32.159Z,6.13
2022-12-18T23:16:58.787Z,6.47
2022-12-18T23:19:25.268Z,6.87
2022-12-18T23:21:52.266Z,7.60
2022-12-18T23:24:28.353Z,5.67
2022-12-18T23:29:24.352Z,4.80
2022-12-18T23:31:51.070Z,6.57
2022-12-18T23:34:18.069Z,5.93
2022-12-18T23:36:46.161Z,6.13
2022-12-18T23:39:28.792Z,5.60
2022-12-18T23:41:57.327Z,5.63
2022-12-18T23:44:23.681Z,6.47
2022-12-18T23:46:50.123Z,8.30
2022-12-18T23:49:18.810Z,6.27
2022-12-18T23:51:45.171Z,5.50
2022-12-18T23:54:11.853Z,6.33
2022-12-18T23:56:38.145Z,8.87
2022-12-18T23:59:04.495Z,5.27
